sensor_id;sensor_type;location;lat;lon;timestamp;P1;durP1;ratioP1;P2;durP2;ratioP2
75297;SDS011;63896;45.990;18.688;2023-03-01T00:00:17;43.17;;;17.63;;
75297;SDS011;63896;45.990;18.688;2023-03-01T00:03:21;37.15;;;17.52;;
75297;SDS011;63896;45.990;18.688;2023-03-01T00:06:24;43.58;;;17.20;;
75297;SDS011;63896;45.990;18.688;2023-03-01T00:09:27;42.00;;;16.43;;
75297;SDS011;63896;45.990;18.688;2023-03-01T00:12:31;39.53;;;17.20;;
75297;SDS011;63896;45.990;18.688;2023-03-01T00:15:37;42.20;;;18.23;;
75297;SDS011;63896;45.990;18.688;2023-03-01T00:18:41;39.83;;;16.50;;
75297;SDS011;63896;45.990;18.688;2023-03-01T00:21:44;43.67;;;18.00;;
75297;SDS011;63896;45.990;18.688;2023-03-01T00:24:47;44.30;;;16.87;;
75297;SDS011;63896;45.990;18.688;2023-03-01T00:27:50;39.63;;;16.70;;
75297;SDS011;63896;45.990;18.688;2023-03-01T00:30:55;36.85;;;16.02;;
75297;SDS011;63896;45.990;18.688;2023-03-01T00:33:59;33.08;;;15.40;;
75297;SDS011;63896;45.990;18.688;2023-03-01T00:37:04;40.38;;;15.95;;
75297;SDS011;63896;45.990;18.688;2023-03-01T00:40:07;40.23;;;15.40;;
75297;SDS011;63896;45.990;18.688;2023-03-01T00:43:14;38.50;;;15.90;;
75297;SDS011;63896;45.990;18.688;2023-03-01T00:46:17;32.70;;;14.88;;
75297;SDS011;63896;45.990;18.688;2023-03-01T00:49:22;35.50;;;16.17;;
75297;SDS011;63896;45.990;18.688;2023-03-01T00:52:26;35.45;;;15.48;;
75297;SDS011;63896;45.990;18.688;2023-03-01T00:55:30;37.20;;;14.57;;
75297;SDS011;63896;45.990;18.688;2023-03-01T00:58:33;39.63;;;16.30;;
75297;SDS011;63896;45.990;18.688;2023-03-01T01:01:37;29.73;;;13.27;;
75297;SDS011;63896;45.990;18.688;2023-03-01T01:04:40;36.88;;;15.75;;
75297;SDS011;63896;45.990;18.688;2023-03-01T01:07:42;40.55;;;15.20;;
75297;SDS011;63896;45.990;18.688;2023-03-01T01:10:46;43.13;;;17.53;;
75297;SDS011;63896;45.990;18.688;2023-03-01T01:13:49;37.13;;;14.83;;
75297;SDS011;63896;45.990;18.688;2023-03-01T01:16:53;42.13;;;16.38;;
75297;SDS011;63896;45.990;18.688;2023-03-01T01:19:56;40.45;;;16.60;;
75297;SDS011;63896;45.990;18.688;2023-03-01T01:22:59;38.88;;;16.17;;
75297;SDS011;63896;45.990;18.688;2023-03-01T01:26:09;40.77;;;16.07;;
75297;SDS011;63896;45.990;18.688;2023-03-01T01:29:14;37.43;;;15.13;;
75297;SDS011;63896;45.990;18.688;2023-03-01T01:32:18;36.63;;;15.10;;
75297;SDS011;63896;45.990;18.688;2023-03-01T01:35:21;39.05;;;15.40;;
75297;SDS011;63896;45.990;18.688;2023-03-01T01:38:24;37.58;;;15.63;;
75297;SDS011;63896;45.990;18.688;2023-03-01T01:41:27;39.77;;;15.20;;
75297;SDS011;63896;45.990;18.688;2023-03-01T01:44:33;34.20;;;14.97;;
75297;SDS011;63896;45.990;18.688;2023-03-01T01:47:36;30.38;;;13.65;;
75297;SDS011;63896;45.990;18.688;2023-03-01T01:50:41;38.17;;;15.93;;
75297;SDS011;63896;45.990;18.688;2023-03-01T01:53:48;37.28;;;15.27;;
75297;SDS011;63896;45.990;18.688;2023-03-01T01:56:56;35.50;;;14.90;;
75297;SDS011;63896;45.990;18.688;2023-03-01T02:00:09;41.13;;;16.40;;
75297;SDS011;63896;45.990;18.688;2023-03-01T02:03:17;38.83;;;16.40;;
75297;SDS011;63896;45.990;18.688;2023-03-01T02:06:32;37.17;;;15.10;;
75297;SDS011;63896;45.990;18.688;2023-03-01T02:09:39;38.65;;;16.13;;
75297;SDS011;63896;45.990;18.688;2023-03-01T02:12:47;36.73;;;14.37;;
75297;SDS011;63896;45.990;18.688;2023-03-01T02:15:50;39.90;;;16.23;;
75297;SDS011;63896;45.990;18.688;2023-03-01T02:18:54;37.17;;;15.10;;
75297;SDS011;63896;45.990;18.688;2023-03-01T02:22:01;35.83;;;15.10;;
75297;SDS011;63896;45.990;18.688;2023-03-01T02:31:38;34.83;;;14.83;;
75297;SDS011;63896;45.990;18.688;2023-03-01T02:34:46;35.90;;;15.43;;
75297;SDS011;63896;45.990;18.688;2023-03-01T02:37:49;39.30;;;16.17;;
75297;SDS011;63896;45.990;18.688;2023-03-01T02:40:53;33.75;;;14.70;;
75297;SDS011;63896;45.990;18.688;2023-03-01T02:43:59;40.73;;;16.10;;
75297;SDS011;63896;45.990;18.688;2023-03-01T02:47:03;38.97;;;15.20;;
75297;SDS011;63896;45.990;18.688;2023-03-01T02:53:45;38.00;;;15.57;;
75297;SDS011;63896;45.990;18.688;2023-03-01T02:56:57;39.85;;;16.17;;
75297;SDS011;63896;45.990;18.688;2023-03-01T03:00:03;38.57;;;16.23;;
75297;SDS011;63896;45.990;18.688;2023-03-01T03:03:13;39.00;;;15.93;;
75297;SDS011;63896;45.990;18.688;2023-03-01T03:06:22;43.60;;;15.98;;
75297;SDS011;63896;45.990;18.688;2023-03-01T03:09:25;35.38;;;15.55;;
75297;SDS011;63896;45.990;18.688;2023-03-01T03:12:28;39.75;;;17.10;;
75297;SDS011;63896;45.990;18.688;2023-03-01T03:15:31;37.70;;;16.67;;
75297;SDS011;63896;45.990;18.688;2023-03-01T03:18:38;37.43;;;16.13;;
75297;SDS011;63896;45.990;18.688;2023-03-01T03:21:41;37.22;;;16.20;;
75297;SDS011;63896;45.990;18.688;2023-03-01T03:24:44;39.15;;;16.50;;
75297;SDS011;63896;45.990;18.688;2023-03-01T03:27:47;35.95;;;15.40;;
75297;SDS011;63896;45.990;18.688;2023-03-01T03:30:53;36.33;;;16.70;;
75297;SDS011;63896;45.990;18.688;2023-03-01T03:33:56;37.03;;;15.57;;
75297;SDS011;63896;45.990;18.688;2023-03-01T03:36:59;36.90;;;16.60;;
75297;SDS011;63896;45.990;18.688;2023-03-01T03:40:01;39.00;;;15.77;;
75297;SDS011;63896;45.990;18.688;2023-03-01T03:43:07;36.58;;;16.00;;
75297;SDS011;63896;45.990;18.688;2023-03-01T03:46:15;39.63;;;15.13;;
75297;SDS011;63896;45.990;18.688;2023-03-01T03:49:19;36.07;;;15.30;;
75297;SDS011;63896;45.990;18.688;2023-03-01T03:52:22;36.70;;;16.00;;
75297;SDS011;63896;45.990;18.688;2023-03-01T03:55:25;37.47;;;15.70;;
75297;SDS011;63896;45.990;18.688;2023-03-01T03:58:33;39.45;;;16.45;;
75297;SDS011;63896;45.990;18.688;2023-03-01T04:01:36;35.37;;;15.07;;
75297;SDS011;63896;45.990;18.688;2023-03-01T04:04:39;35.50;;;15.60;;
75297;SDS011;63896;45.990;18.688;2023-03-01T04:07:42;37.13;;;16.00;;
75297;SDS011;63896;45.990;18.688;2023-03-01T04:10:47;39.70;;;16.75;;
75297;SDS011;63896;45.990;18.688;2023-03-01T04:13:53;38.72;;;16.35;;
75297;SDS011;63896;45.990;18.688;2023-03-01T04:16:57;35.90;;;16.63;;
75297;SDS011;63896;45.990;18.688;2023-03-01T04:20:00;37.27;;;16.20;;
75297;SDS011;63896;45.990;18.688;2023-03-01T04:23:15;33.70;;;15.00;;
75297;SDS011;63896;45.990;18.688;2023-03-01T04:26:22;35.50;;;15.63;;
75297;SDS011;63896;45.990;18.688;2023-03-01T04:29:25;33.40;;;13.43;;
75297;SDS011;63896;45.990;18.688;2023-03-01T04:32:27;34.10;;;14.83;;
75297;SDS011;63896;45.990;18.688;2023-03-01T04:35:30;33.90;;;13.73;;
75297;SDS011;63896;45.990;18.688;2023-03-01T04:38:34;34.88;;;14.13;;
75297;SDS011;63896;45.990;18.688;2023-03-01T04:41:39;33.72;;;14.38;;
75297;SDS011;63896;45.990;18.688;2023-03-01T04:44:43;34.42;;;14.43;;
75297;SDS011;63896;45.990;18.688;2023-03-01T04:47:46;36.77;;;15.23;;
75297;SDS011;63896;45.990;18.688;2023-03-01T04:50:49;32.07;;;14.20;;
75297;SDS011;63896;45.990;18.688;2023-03-01T04:53:52;36.53;;;15.55;;
75297;SDS011;63896;45.990;18.688;2023-03-01T04:56:55;37.95;;;14.63;;
75297;SDS011;63896;45.990;18.688;2023-03-01T04:59:59;37.85;;;15.45;;
75297;SDS011;63896;45.990;18.688;2023-03-01T05:03:02;34.33;;;15.47;;
75297;SDS011;63896;45.990;18.688;2023-03-01T05:06:05;35.20;;;14.93;;
75297;SDS011;63896;45.990;18.688;2023-03-01T05:09:08;37.30;;;15.20;;
75297;SDS011;63896;45.990;18.688;2023-03-01T05:12:11;37.83;;;16.90;;
75297;SDS011;63896;45.990;18.688;2023-03-01T05:15:15;39.30;;;16.38;;
75297;SDS011;63896;45.990;18.688;2023-03-01T05:18:18;36.60;;;16.83;;
75297;SDS011;63896;45.990;18.688;2023-03-01T05:21:21;37.17;;;15.93;;
75297;SDS011;63896;45.990;18.688;2023-03-01T05:24:24;39.28;;;16.35;;
75297;SDS011;63896;45.990;18.688;2023-03-01T05:27:26;36.30;;;16.02;;
75297;SDS011;63896;45.990;18.688;2023-03-01T05:30:31;36.25;;;15.25;;
75297;SDS011;63896;45.990;18.688;2023-03-01T05:33:36;36.77;;;15.90;;
75297;SDS011;63896;45.990;18.688;2023-03-01T05:36:42;36.97;;;16.00;;
75297;SDS011;63896;45.990;18.688;2023-03-01T05:39:45;34.83;;;15.65;;
75297;SDS011;63896;45.990;18.688;2023-03-01T05:42:52;39.83;;;16.98;;
75297;SDS011;63896;45.990;18.688;2023-03-01T05:45:57;39.78;;;16.15;;
75297;SDS011;63896;45.990;18.688;2023-03-01T05:49:00;38.07;;;16.67;;
75297;SDS011;63896;45.990;18.688;2023-03-01T05:52:04;37.63;;;17.03;;
75297;SDS011;63896;45.990;18.688;2023-03-01T05:55:07;39.25;;;16.65;;
75297;SDS011;63896;45.990;18.688;2023-03-01T05:58:11;41.60;;;17.65;;
75297;SDS011;63896;45.990;18.688;2023-03-01T06:01:19;38.47;;;16.27;;
75297;SDS011;63896;45.990;18.688;2023-03-01T06:04:22;38.53;;;16.00;;
75297;SDS011;63896;45.990;18.688;2023-03-01T06:07:24;39.73;;;16.33;;
75297;SDS011;63896;45.990;18.688;2023-03-01T06:10:28;39.83;;;17.70;;
75297;SDS011;63896;45.990;18.688;2023-03-01T06:13:31;40.22;;;17.15;;
75297;SDS011;63896;45.990;18.688;2023-03-01T06:16:34;37.50;;;16.95;;
75297;SDS011;63896;45.990;18.688;2023-03-01T06:19:37;35.80;;;16.70;;
75297;SDS011;63896;45.990;18.688;2023-03-01T06:22:41;38.70;;;17.73;;
75297;SDS011;63896;45.990;18.688;2023-03-01T06:25:44;37.53;;;15.90;;
75297;SDS011;63896;45.990;18.688;2023-03-01T06:28:47;38.40;;;16.83;;
75297;SDS011;63896;45.990;18.688;2023-03-01T06:31:50;35.00;;;16.13;;
75297;SDS011;63896;45.990;18.688;2023-03-01T06:34:52;29.87;;;13.17;;
75297;SDS011;63896;45.990;18.688;2023-03-01T06:37:55;38.27;;;17.03;;
75297;SDS011;63896;45.990;18.688;2023-03-01T06:41:00;37.97;;;16.88;;
75297;SDS011;63896;45.990;18.688;2023-03-01T06:44:04;35.03;;;16.67;;
75297;SDS011;63896;45.990;18.688;2023-03-01T06:47:07;36.95;;;16.77;;
75297;SDS011;63896;45.990;18.688;2023-03-01T06:50:10;33.23;;;16.00;;
75297;SDS011;63896;45.990;18.688;2023-03-01T06:53:14;37.37;;;16.30;;
75297;SDS011;63896;45.990;18.688;2023-03-01T06:56:19;36.10;;;16.45;;
75297;SDS011;63896;45.990;18.688;2023-03-01T06:59:22;38.83;;;17.83;;
75297;SDS011;63896;45.990;18.688;2023-03-01T07:02:26;39.75;;;16.05;;
75297;SDS011;63896;45.990;18.688;2023-03-01T07:05:29;39.03;;;16.97;;
75297;SDS011;63896;45.990;18.688;2023-03-01T07:08:32;39.47;;;17.57;;
75297;SDS011;63896;45.990;18.688;2023-03-01T07:11:37;31.77;;;15.93;;
75297;SDS011;63896;45.990;18.688;2023-03-01T07:14:41;41.25;;;18.40;;
75297;SDS011;63896;45.990;18.688;2023-03-01T07:17:46;39.47;;;18.80;;
75297;SDS011;63896;45.990;18.688;2023-03-01T07:20:53;39.77;;;17.57;;
75297;SDS011;63896;45.990;18.688;2023-03-01T07:23:56;38.07;;;17.80;;
75297;SDS011;63896;45.990;18.688;2023-03-01T07:26:59;38.95;;;19.52;;
75297;SDS011;63896;45.990;18.688;2023-03-01T07:30:02;37.60;;;16.70;;
75297;SDS011;63896;45.990;18.688;2023-03-01T07:33:08;37.00;;;17.52;;
75297;SDS011;63896;45.990;18.688;2023-03-01T07:36:11;37.90;;;18.17;;
75297;SDS011;63896;45.990;18.688;2023-03-01T07:39:15;34.53;;;16.87;;
75297;SDS011;63896;45.990;18.688;2023-03-01T07:42:21;36.75;;;18.25;;
75297;SDS011;63896;45.990;18.688;2023-03-01T07:45:25;40.08;;;19.50;;
75297;SDS011;63896;45.990;18.688;2023-03-01T07:48:29;35.63;;;17.27;;
75297;SDS011;63896;45.990;18.688;2023-03-01T07:51:35;35.27;;;17.50;;
75297;SDS011;63896;45.990;18.688;2023-03-01T07:54:44;34.87;;;16.93;;
75297;SDS011;63896;45.990;18.688;2023-03-01T07:57:48;33.92;;;16.73;;
75297;SDS011;63896;45.990;18.688;2023-03-01T08:00:51;32.50;;;16.30;;
75297;SDS011;63896;45.990;18.688;2023-03-01T08:03:54;34.25;;;16.45;;
75297;SDS011;63896;45.990;18.688;2023-03-01T08:06:59;39.58;;;18.23;;
75297;SDS011;63896;45.990;18.688;2023-03-01T08:10:03;35.57;;;17.10;;
75297;SDS011;63896;45.990;18.688;2023-03-01T08:13:08;38.97;;;18.55;;
75297;SDS011;63896;45.990;18.688;2023-03-01T08:16:12;35.22;;;17.20;;
75297;SDS011;63896;45.990;18.688;2023-03-01T08:19:17;34.90;;;16.55;;
75297;SDS011;63896;45.990;18.688;2023-03-01T08:22:20;34.83;;;17.20;;
75297;SDS011;63896;45.990;18.688;2023-03-01T08:25:23;35.27;;;17.17;;
75297;SDS011;63896;45.990;18.688;2023-03-01T08:28:26;36.97;;;17.40;;
75297;SDS011;63896;45.990;18.688;2023-03-01T08:31:31;33.78;;;17.05;;
75297;SDS011;63896;45.990;18.688;2023-03-01T08:34:40;36.53;;;17.83;;
75297;SDS011;63896;45.990;18.688;2023-03-01T08:37:47;34.97;;;17.57;;
75297;SDS011;63896;45.990;18.688;2023-03-01T08:40:55;36.57;;;17.67;;
75297;SDS011;63896;45.990;18.688;2023-03-01T08:44:02;34.22;;;16.80;;
75297;SDS011;63896;45.990;18.688;2023-03-01T08:47:05;29.55;;;14.73;;
75297;SDS011;63896;45.990;18.688;2023-03-01T08:50:10;33.70;;;17.02;;
75297;SDS011;63896;45.990;18.688;2023-03-01T08:53:14;29.13;;;15.67;;
75297;SDS011;63896;45.990;18.688;2023-03-01T08:56:17;29.67;;;15.10;;
75297;SDS011;63896;45.990;18.688;2023-03-01T08:59:21;34.05;;;16.08;;
75297;SDS011;63896;45.990;18.688;2023-03-01T09:02:25;28.17;;;15.30;;
75297;SDS011;63896;45.990;18.688;2023-03-01T09:05:30;30.38;;;15.65;;
75297;SDS011;63896;45.990;18.688;2023-03-01T09:08:38;33.47;;;15.33;;
75297;SDS011;63896;45.990;18.688;2023-03-01T09:11:43;31.80;;;15.20;;
75297;SDS011;63896;45.990;18.688;2023-03-01T09:14:48;29.58;;;14.48;;
75297;SDS011;63896;45.990;18.688;2023-03-01T09:17:54;30.15;;;14.32;;
75297;SDS011;63896;45.990;18.688;2023-03-01T09:24:17;33.23;;;16.40;;
75297;SDS011;63896;45.990;18.688;2023-03-01T09:27:21;34.50;;;19.20;;
75297;SDS011;63896;45.990;18.688;2023-03-01T09:30:24;32.95;;;16.67;;
75297;SDS011;63896;45.990;18.688;2023-03-01T09:33:29;32.05;;;15.63;;
75297;SDS011;63896;45.990;18.688;2023-03-01T09:36:34;29.25;;;15.10;;
75297;SDS011;63896;45.990;18.688;2023-03-01T09:39:37;34.07;;;16.17;;
75297;SDS011;63896;45.990;18.688;2023-03-01T09:42:45;31.53;;;15.83;;
75297;SDS011;63896;45.990;18.688;2023-03-01T09:46:10;28.17;;;14.35;;
75297;SDS011;63896;45.990;18.688;2023-03-01T09:49:20;34.80;;;15.75;;
75297;SDS011;63896;45.990;18.688;2023-03-01T09:52:38;31.63;;;14.88;;
75297;SDS011;63896;45.990;18.688;2023-03-01T09:55:50;29.03;;;14.67;;
75297;SDS011;63896;45.990;18.688;2023-03-01T10:12:10;30.27;;;14.20;;
75297;SDS011;63896;45.990;18.688;2023-03-01T10:15:20;30.83;;;15.50;;
75297;SDS011;63896;45.990;18.688;2023-03-01T10:18:32;32.05;;;15.55;;
75297;SDS011;63896;45.990;18.688;2023-03-01T10:21:41;35.75;;;15.40;;
75297;SDS011;63896;45.990;18.688;2023-03-01T10:24:50;32.50;;;16.05;;
75297;SDS011;63896;45.990;18.688;2023-03-01T10:28:10;29.03;;;14.60;;
75297;SDS011;63896;45.990;18.688;2023-03-01T10:31:23;27.17;;;14.67;;
75297;SDS011;63896;45.990;18.688;2023-03-01T10:34:33;31.10;;;16.23;;
75297;SDS011;63896;45.990;18.688;2023-03-01T10:37:37;32.47;;;16.75;;
75297;SDS011;63896;45.990;18.688;2023-03-01T10:41:04;33.25;;;16.55;;
75297;SDS011;63896;45.990;18.688;2023-03-01T10:44:09;36.95;;;17.33;;
75297;SDS011;63896;45.990;18.688;2023-03-01T10:47:42;33.47;;;16.27;;
75297;SDS011;63896;45.990;18.688;2023-03-01T10:50:48;34.28;;;17.83;;
75297;SDS011;63896;45.990;18.688;2023-03-01T10:57:27;26.58;;;14.57;;
75297;SDS011;63896;45.990;18.688;2023-03-01T11:00:45;28.17;;;13.80;;
75297;SDS011;63896;45.990;18.688;2023-03-01T11:04:13;27.73;;;15.13;;
75297;SDS011;63896;45.990;18.688;2023-03-01T11:07:18;25.23;;;13.13;;
75297;SDS011;63896;45.990;18.688;2023-03-01T11:10:32;26.08;;;13.88;;
75297;SDS011;63896;45.990;18.688;2023-03-01T11:13:45;27.52;;;14.63;;
75297;SDS011;63896;45.990;18.688;2023-03-01T11:17:02;22.50;;;12.55;;
75297;SDS011;63896;45.990;18.688;2023-03-01T11:24:16;24.95;;;13.77;;
75297;SDS011;63896;45.990;18.688;2023-03-01T11:27:33;27.45;;;13.48;;
75297;SDS011;63896;45.990;18.688;2023-03-01T11:30:57;25.65;;;15.02;;
75297;SDS011;63896;45.990;18.688;2023-03-01T11:34:15;25.15;;;13.85;;
75297;SDS011;63896;45.990;18.688;2023-03-01T11:37:40;27.13;;;14.87;;
75297;SDS011;63896;45.990;18.688;2023-03-01T11:44:33;23.33;;;13.00;;
75297;SDS011;63896;45.990;18.688;2023-03-01T11:51:02;23.13;;;13.82;;
75297;SDS011;63896;45.990;18.688;2023-03-01T11:54:29;23.83;;;13.20;;
75297;SDS011;63896;45.990;18.688;2023-03-01T12:01:28;26.73;;;13.75;;
75297;SDS011;63896;45.990;18.688;2023-03-01T12:25:48;23.83;;;12.45;;
75297;SDS011;63896;45.990;18.688;2023-03-01T12:46:52;22.17;;;12.30;;
75297;SDS011;63896;45.990;18.688;2023-03-01T12:50:14;27.92;;;13.25;;
75297;SDS011;63896;45.990;18.688;2023-03-01T12:53:50;25.33;;;13.23;;
75297;SDS011;63896;45.990;18.688;2023-03-01T12:57:12;22.23;;;12.02;;
75297;SDS011;63896;45.990;18.688;2023-03-01T13:00:32;25.85;;;13.30;;
75297;SDS011;63896;45.990;18.688;2023-03-01T13:13:52;20.05;;;11.82;;
75297;SDS011;63896;45.990;18.688;2023-03-01T13:17:41;20.75;;;11.18;;
75297;SDS011;63896;45.990;18.688;2023-03-01T13:20:51;20.40;;;10.93;;
75297;SDS011;63896;45.990;18.688;2023-03-01T13:23:56;20.08;;;11.60;;
75297;SDS011;63896;45.990;18.688;2023-03-01T13:39:50;25.52;;;11.63;;
75297;SDS011;63896;45.990;18.688;2023-03-01T13:42:54;32.70;;;12.30;;
75297;SDS011;63896;45.990;18.688;2023-03-01T13:46:17;20.45;;;11.43;;
75297;SDS011;63896;45.990;18.688;2023-03-01T13:49:35;20.53;;;10.20;;
75297;SDS011;63896;45.990;18.688;2023-03-01T13:52:48;21.07;;;11.60;;
75297;SDS011;63896;45.990;18.688;2023-03-01T13:55:55;23.88;;;10.93;;
75297;SDS011;63896;45.990;18.688;2023-03-01T13:59:05;24.98;;;11.27;;
75297;SDS011;63896;45.990;18.688;2023-03-01T14:02:12;24.23;;;10.82;;
75297;SDS011;63896;45.990;18.688;2023-03-01T14:05:16;22.63;;;12.37;;
75297;SDS011;63896;45.990;18.688;2023-03-01T14:08:20;22.23;;;11.53;;
75297;SDS011;63896;45.990;18.688;2023-03-01T14:21:19;23.40;;;12.10;;
75297;SDS011;63896;45.990;18.688;2023-03-01T14:24:22;26.20;;;12.37;;
75297;SDS011;63896;45.990;18.688;2023-03-01T14:27:26;23.88;;;12.23;;
75297;SDS011;63896;45.990;18.688;2023-03-01T14:30:55;21.05;;;11.20;;
75297;SDS011;63896;45.990;18.688;2023-03-01T14:34:00;22.48;;;11.02;;
75297;SDS011;63896;45.990;18.688;2023-03-01T14:37:39;26.40;;;12.90;;
75297;SDS011;63896;45.990;18.688;2023-03-01T14:40:37;26.97;;;13.17;;
75297;SDS011;63896;45.990;18.688;2023-03-01T14:43:44;23.70;;;12.48;;
75297;SDS011;63896;45.990;18.688;2023-03-01T14:46:59;20.85;;;11.80;;
75297;SDS011;63896;45.990;18.688;2023-03-01T14:50:48;23.75;;;12.20;;
75297;SDS011;63896;45.990;18.688;2023-03-01T14:53:36;26.88;;;12.77;;
75297;SDS011;63896;45.990;18.688;2023-03-01T14:56:52;23.37;;;11.90;;
75297;SDS011;63896;45.990;18.688;2023-03-01T14:59:57;24.48;;;12.18;;
75297;SDS011;63896;45.990;18.688;2023-03-01T15:03:08;23.25;;;12.82;;
75297;SDS011;63896;45.990;18.688;2023-03-01T15:06:17;22.48;;;11.85;;
75297;SDS011;63896;45.990;18.688;2023-03-01T15:09:22;28.00;;;14.18;;
75297;SDS011;63896;45.990;18.688;2023-03-01T15:15:32;24.48;;;12.05;;
75297;SDS011;63896;45.990;18.688;2023-03-01T15:18:46;31.60;;;13.75;;
75297;SDS011;63896;45.990;18.688;2023-03-01T15:21:51;22.52;;;12.02;;
75297;SDS011;63896;45.990;18.688;2023-03-01T15:24:54;26.55;;;12.73;;
75297;SDS011;63896;45.990;18.688;2023-03-01T15:27:58;21.20;;;11.13;;
75297;SDS011;63896;45.990;18.688;2023-03-01T15:31:11;23.83;;;11.68;;
75297;SDS011;63896;45.990;18.688;2023-03-01T15:34:29;28.75;;;14.10;;
75297;SDS011;63896;45.990;18.688;2023-03-01T15:37:40;25.05;;;12.50;;
75297;SDS011;63896;45.990;18.688;2023-03-01T15:40:49;24.77;;;12.43;;
75297;SDS011;63896;45.990;18.688;2023-03-01T15:43:52;30.27;;;14.53;;
75297;SDS011;63896;45.990;18.688;2023-03-01T15:46:58;28.17;;;13.82;;
75297;SDS011;63896;45.990;18.688;2023-03-01T15:50:02;26.77;;;13.10;;
75297;SDS011;63896;45.990;18.688;2023-03-01T15:53:06;24.02;;;11.52;;
75297;SDS011;63896;45.990;18.688;2023-03-01T15:56:13;23.15;;;11.95;;
75297;SDS011;63896;45.990;18.688;2023-03-01T15:59:16;22.03;;;11.90;;
75297;SDS011;63896;45.990;18.688;2023-03-01T16:02:20;22.40;;;12.25;;
75297;SDS011;63896;45.990;18.688;2023-03-01T16:05:26;23.92;;;11.27;;
75297;SDS011;63896;45.990;18.688;2023-03-01T16:08:30;22.63;;;11.60;;
75297;SDS011;63896;45.990;18.688;2023-03-01T16:11:35;25.05;;;12.32;;
75297;SDS011;63896;45.990;18.688;2023-03-01T16:14:39;22.00;;;11.80;;
75297;SDS011;63896;45.990;18.688;2023-03-01T16:17:42;25.10;;;11.43;;
75297;SDS011;63896;45.990;18.688;2023-03-01T16:20:48;24.13;;;11.75;;
75297;SDS011;63896;45.990;18.688;2023-03-01T16:23:51;22.35;;;11.80;;
75297;SDS011;63896;45.990;18.688;2023-03-01T16:26:55;24.35;;;11.40;;
75297;SDS011;63896;45.990;18.688;2023-03-01T16:29:58;28.73;;;13.70;;
75297;SDS011;63896;45.990;18.688;2023-03-01T16:33:01;30.80;;;13.00;;
75297;SDS011;63896;45.990;18.688;2023-03-01T16:36:11;26.17;;;12.80;;
75297;SDS011;63896;45.990;18.688;2023-03-01T16:39:14;29.75;;;15.05;;
75297;SDS011;63896;45.990;18.688;2023-03-01T16:42:18;30.35;;;14.73;;
75297;SDS011;63896;45.990;18.688;2023-03-01T16:45:21;29.73;;;14.43;;
75297;SDS011;63896;45.990;18.688;2023-03-01T16:48:26;35.03;;;15.65;;
75297;SDS011;63896;45.990;18.688;2023-03-01T16:51:29;34.17;;;15.93;;
75297;SDS011;63896;45.990;18.688;2023-03-01T16:54:33;29.27;;;15.38;;
75297;SDS011;63896;45.990;18.688;2023-03-01T16:57:37;29.92;;;14.05;;
75297;SDS011;63896;45.990;18.688;2023-03-01T17:00:42;26.13;;;13.40;;
75297;SDS011;63896;45.990;18.688;2023-03-01T17:03:46;25.73;;;13.30;;
75297;SDS011;63896;45.990;18.688;2023-03-01T17:06:51;24.63;;;13.38;;
75297;SDS011;63896;45.990;18.688;2023-03-01T17:09:53;31.27;;;15.25;;
75297;SDS011;63896;45.990;18.688;2023-03-01T17:12:56;35.97;;;17.10;;
75297;SDS011;63896;45.990;18.688;2023-03-01T17:15:59;32.87;;;16.20;;
75297;SDS011;63896;45.990;18.688;2023-03-01T17:19:02;31.95;;;15.35;;
75297;SDS011;63896;45.990;18.688;2023-03-01T17:22:06;28.60;;;14.18;;
75297;SDS011;63896;45.990;18.688;2023-03-01T17:25:09;25.73;;;12.70;;
75297;SDS011;63896;45.990;18.688;2023-03-01T17:28:13;27.77;;;14.77;;
75297;SDS011;63896;45.990;18.688;2023-03-01T17:31:23;27.53;;;13.97;;
75297;SDS011;63896;45.990;18.688;2023-03-01T17:34:26;35.95;;;15.40;;
75297;SDS011;63896;45.990;18.688;2023-03-01T17:37:29;32.60;;;15.73;;
75297;SDS011;63896;45.990;18.688;2023-03-01T17:40:33;28.17;;;13.32;;
75297;SDS011;63896;45.990;18.688;2023-03-01T17:43:37;27.98;;;11.98;;
75297;SDS011;63896;45.990;18.688;2023-03-01T17:46:53;22.27;;;12.37;;
75297;SDS011;63896;45.990;18.688;2023-03-01T17:49:56;24.50;;;12.73;;
75297;SDS011;63896;45.990;18.688;2023-03-01T17:52:59;23.95;;;12.50;;
75297;SDS011;63896;45.990;18.688;2023-03-01T17:56:03;24.50;;;11.23;;
75297;SDS011;63896;45.990;18.688;2023-03-01T17:59:07;23.57;;;12.87;;
75297;SDS011;63896;45.990;18.688;2023-03-01T18:02:11;26.37;;;13.40;;
75297;SDS011;63896;45.990;18.688;2023-03-01T18:05:15;30.73;;;15.05;;
75297;SDS011;63896;45.990;18.688;2023-03-01T18:08:18;26.02;;;13.25;;
75297;SDS011;63896;45.990;18.688;2023-03-01T18:11:22;26.45;;;13.60;;
75297;SDS011;63896;45.990;18.688;2023-03-01T18:14:25;29.95;;;14.27;;
75297;SDS011;63896;45.990;18.688;2023-03-01T18:17:31;28.80;;;13.70;;
75297;SDS011;63896;45.990;18.688;2023-03-01T18:20:33;27.05;;;14.27;;
75297;SDS011;63896;45.990;18.688;2023-03-01T18:23:37;28.90;;;14.98;;
75297;SDS011;63896;45.990;18.688;2023-03-01T18:26:40;28.48;;;14.27;;
75297;SDS011;63896;45.990;18.688;2023-03-01T18:29:43;29.97;;;13.67;;
75297;SDS011;63896;45.990;18.688;2023-03-01T18:32:46;28.33;;;13.97;;
75297;SDS011;63896;45.990;18.688;2023-03-01T18:35:49;27.02;;;13.07;;
75297;SDS011;63896;45.990;18.688;2023-03-01T18:38:53;25.45;;;13.50;;
75297;SDS011;63896;45.990;18.688;2023-03-01T18:41:57;27.25;;;13.32;;
75297;SDS011;63896;45.990;18.688;2023-03-01T18:45:01;28.67;;;13.80;;
75297;SDS011;63896;45.990;18.688;2023-03-01T18:48:05;26.57;;;13.60;;
75297;SDS011;63896;45.990;18.688;2023-03-01T18:51:15;27.35;;;13.25;;
75297;SDS011;63896;45.990;18.688;2023-03-01T18:54:20;26.65;;;13.52;;
75297;SDS011;63896;45.990;18.688;2023-03-01T18:57:23;28.52;;;14.18;;
75297;SDS011;63896;45.990;18.688;2023-03-01T19:00:27;28.13;;;14.27;;
75297;SDS011;63896;45.990;18.688;2023-03-01T19:03:30;28.53;;;13.80;;
75297;SDS011;63896;45.990;18.688;2023-03-01T19:06:33;23.25;;;12.40;;
75297;SDS011;63896;45.990;18.688;2023-03-01T19:09:38;28.88;;;12.20;;
75297;SDS011;63896;45.990;18.688;2023-03-01T19:12:41;23.70;;;12.30;;
75297;SDS011;63896;45.990;18.688;2023-03-01T19:15:45;23.27;;;12.80;;
75297;SDS011;63896;45.990;18.688;2023-03-01T19:18:48;24.20;;;12.17;;
75297;SDS011;63896;45.990;18.688;2023-03-01T19:21:56;23.85;;;12.02;;
75297;SDS011;63896;45.990;18.688;2023-03-01T19:25:07;26.45;;;13.63;;
75297;SDS011;63896;45.990;18.688;2023-03-01T19:28:11;25.33;;;12.60;;
75297;SDS011;63896;45.990;18.688;2023-03-01T19:31:15;24.30;;;11.30;;
75297;SDS011;63896;45.990;18.688;2023-03-01T19:34:20;22.13;;;10.83;;
75297;SDS011;63896;45.990;18.688;2023-03-01T19:37:26;23.55;;;10.27;;
75297;SDS011;63896;45.990;18.688;2023-03-01T19:40:29;24.17;;;10.77;;
75297;SDS011;63896;45.990;18.688;2023-03-01T19:43:33;18.25;;;9.98;;
75297;SDS011;63896;45.990;18.688;2023-03-01T19:46:38;21.57;;;10.10;;
75297;SDS011;63896;45.990;18.688;2023-03-01T19:49:41;19.37;;;9.93;;
75297;SDS011;63896;45.990;18.688;2023-03-01T19:52:44;16.48;;;9.52;;